createdAt,value
2023-05-06T00:03:55.671Z,101057.39
2023-05-06T00:08:58.464Z,101056.42
2023-05-06T00:14:01.018Z,101059.28
2023-05-06T00:19:04.037Z,101058.89
2023-05-06T00:24:07.056Z,101058.56
2023-05-06T00:29:09.720Z,101065.84
2023-05-06T00:34:12.271Z,101064.55
2023-05-06T00:39:14.867Z,101064.31
2023-05-06T00:44:17.768Z,101067.58
2023-05-06T00:49:21.072Z,101073.06
2023-05-06T00:54:26.040Z,101072.56
2023-05-06T00:59:28.735Z,101073.01
2023-05-06T01:04:31.858Z,101076.06
2023-05-06T01:09:37.483Z,101083.27
2023-05-06T01:15:01.341Z,101087.68
2023-05-06T01:20:06.236Z,101087.55
2023-05-06T01:25:19.124Z,101087.89
2023-05-06T01:30:25.006Z,101096.73
2023-05-06T01:35:44.154Z,101097.87
2023-05-06T01:40:54.228Z,101100.38
2023-05-06T01:45:57.810Z,101101.89
2023-05-06T01:51:00.468Z,101094.05
2023-05-06T01:56:03.345Z,101091.67
2023-05-06T02:01:05.905Z,101094.64
2023-05-06T02:06:08.648Z,101095.38
2023-05-06T02:11:11.154Z,101094.01
2023-05-06T02:16:13.670Z,101096.39
2023-05-06T02:21:16.198Z,101098.48
2023-05-06T02:26:18.737Z,101103.48
2023-05-06T02:31:21.440Z,101106.77
2023-05-06T02:36:24.035Z,101106.30
2023-05-06T02:41:26.619Z,101104.95
2023-05-06T02:46:29.132Z,101102.66
2023-05-06T02:51:31.816Z,101100.00
2023-05-06T02:56:35.268Z,101100.05
2023-05-06T03:01:37.887Z,101093.84
2023-05-06T03:06:40.770Z,101086.40
2023-05-06T03:11:43.951Z,101083.43
2023-05-06T03:16:46.505Z,101093.21
2023-05-06T03:21:49.393Z,101088.56
2023-05-06T03:26:53.115Z,101083.52
2023-05-06T03:36:59.198Z,101079.61
2023-05-06T03:42:02.300Z,101074.27
2023-05-06T03:47:04.857Z,101075.94
2023-05-06T03:52:07.435Z,101083.23
2023-05-06T03:57:10.198Z,101089.64
2023-05-06T04:02:12.891Z,101091.00
2023-05-06T04:07:15.664Z,101093.66
2023-05-06T04:12:18.223Z,101097.89
2023-05-06T04:17:20.796Z,101093.17
2023-05-06T04:22:23.654Z,101095.89
2023-05-06T04:27:29.755Z,101096.58
2023-05-06T04:32:34.120Z,101087.76
2023-05-06T04:37:36.766Z,101077.02
2023-05-06T04:42:39.564Z,101077.05
2023-05-06T04:47:43.313Z,101079.00
2023-05-06T04:52:45.914Z,101082.23
2023-05-06T04:57:48.586Z,101074.44
2023-05-06T05:02:51.481Z,101075.38
2023-05-06T05:07:55.580Z,101069.43
2023-05-06T05:12:58.317Z,101062.19
2023-05-06T05:18:00.973Z,101056.08
2023-05-06T05:23:03.780Z,101055.91
2023-05-06T05:28:06.265Z,101055.19
2023-05-06T05:33:09.233Z,101051.69
2023-05-06T05:38:13.935Z,101050.55
2023-05-06T05:43:16.559Z,101047.04
2023-05-06T05:48:19.091Z,101048.77
2023-05-06T05:53:21.634Z,101046.70
2023-05-06T05:58:24.139Z,101037.46
2023-05-06T06:03:27.557Z,101034.00
2023-05-06T06:08:31.889Z,101033.38
2023-05-06T06:13:34.441Z,101028.33
2023-05-06T06:18:37.012Z,101025.55
2023-05-06T06:23:39.708Z,101023.11
2023-05-06T06:28:44.432Z,101027.14
2023-05-06T06:33:46.963Z,101028.38
2023-05-06T06:38:49.497Z,101022.52
2023-05-06T06:43:52.085Z,101021.85
2023-05-06T06:48:55.134Z,101029.80
2023-05-06T06:53:57.748Z,101022.20
2023-05-06T06:59:00.529Z,101017.77
2023-05-06T07:04:06.559Z,101013.12
2023-05-06T07:09:10.266Z,101015.95
2023-05-06T07:14:12.860Z,101018.61
2023-05-06T07:19:15.439Z,101020.17
2023-05-06T07:24:18.032Z,101010.58
2023-05-06T07:29:20.632Z,101007.30
2023-05-06T07:34:23.229Z,101010.27
2023-05-06T07:39:25.885Z,100997.02
2023-05-06T07:44:28.526Z,100995.27
2023-05-06T07:49:34.085Z,100997.80
2023-05-06T07:54:38.236Z,100998.34
2023-05-06T07:59:40.791Z,101001.08
2023-05-06T08:04:43.619Z,100997.70
2023-05-06T08:09:46.535Z,101000.08
2023-05-06T08:14:49.146Z,101003.45
2023-05-06T08:19:51.776Z,100994.15
2023-05-06T08:24:55.084Z,100996.95
2023-05-06T08:29:58.727Z,100998.14
2023-05-06T08:35:02.317Z,100987.38
2023-05-06T08:40:06.508Z,100970.52
2023-05-06T08:45:11.488Z,100969.84
2023-05-06T08:50:14.274Z,100966.10
2023-05-06T08:55:18.833Z,100970.98
2023-05-06T09:00:22.058Z,100969.23
2023-05-06T09:05:24.639Z,100963.23
2023-05-06T09:10:32.945Z,100952.67
2023-05-06T09:15:43.166Z,100948.05
2023-05-06T09:20:48.452Z,100946.39
2023-05-06T09:25:51.287Z,100942.39
2023-05-06T09:30:54.300Z,100935.95
2023-05-06T09:36:01.722Z,100931.27
2023-05-06T09:41:05.067Z,100931.47
2023-05-06T09:46:08.938Z,100932.45
2023-05-06T09:51:11.594Z,100928.94
2023-05-06T09:56:15.561Z,100926.11
2023-05-06T10:01:32.705Z,100921.93
2023-05-06T10:06:40.156Z,100920.11
2023-05-06T10:11:45.514Z,100926.13
2023-05-06T10:16:49.047Z,100919.67
2023-05-06T10:22:05.598Z,100915.33
2023-05-06T10:27:12.091Z,100919.70
2023-05-06T10:32:17.309Z,100923.08
2023-05-06T10:37:25.803Z,100917.05
2023-05-06T10:42:33.859Z,100910.23
2023-05-06T10:47:58.193Z,100909.08
2023-05-06T10:53:00.814Z,100898.17
2023-05-06T10:58:18.817Z,100898.20
2023-05-06T11:03:24.060Z,100893.50
2023-05-06T11:08:27.358Z,100887.29
2023-05-06T11:13:35.053Z,100880.30
2023-05-06T11:18:41.783Z,100880.09
2023-05-06T11:23:52.012Z,100884.07
2023-05-06T11:28:55.758Z,100882.77
2023-05-06T11:34:01.721Z,100882.64
2023-05-06T11:39:10.496Z,100876.69
2023-05-06T11:44:24.551Z,100869.39
2023-05-06T11:49:28.547Z,100867.27
2023-05-06T11:54:39.036Z,100867.66
2023-05-06T11:59:41.869Z,100868.68
2023-05-06T12:04:46.853Z,100869.77
2023-05-06T12:09:50.444Z,100875.46
2023-05-06T12:14:54.022Z,100869.39
2023-05-06T12:19:56.663Z,100863.11
2023-05-06T12:25:15.435Z,100867.79
2023-05-06T12:30:29.793Z,100862.79
2023-05-06T12:35:32.836Z,100860.40
2023-05-06T12:40:36.120Z,100854.77
2023-05-06T12:45:39.883Z,100853.82
2023-05-06T12:50:44.509Z,100845.86
2023-05-06T12:55:47.061Z,100843.54
2023-05-06T13:00:49.636Z,100849.97
2023-05-06T13:05:52.186Z,100850.48
2023-05-06T13:10:54.759Z,100846.41
2023-05-06T13:15:57.470Z,100844.17
2023-05-06T13:21:00.582Z,100844.95
2023-05-06T13:26:06.225Z,100844.95
2023-05-06T13:31:09.079Z,100841.48
2023-05-06T13:36:11.833Z,100836.30
2023-05-06T13:41:14.979Z,100835.68
2023-05-06T13:46:17.661Z,100825.84
2023-05-06T13:51:20.383Z,100822.77
2023-05-06T13:56:22.956Z,100828.69
2023-05-06T14:01:25.666Z,100829.81
2023-05-06T14:06:29.312Z,100830.52
2023-05-06T14:11:31.964Z,100829.95
2023-05-06T14:16:34.565Z,100828.32
2023-05-06T14:21:37.157Z,100825.69
2023-05-06T14:26:40.415Z,100822.21
2023-05-06T14:31:43.019Z,100819.52
2023-05-06T14:36:45.632Z,100813.92
2023-05-06T14:41:50.694Z,100809.75
2023-05-06T14:46:53.267Z,100812.09
2023-05-06T14:51:55.930Z,100809.70
2023-05-06T14:57:01.271Z,100805.88
2023-05-06T15:02:07.221Z,100803.21
2023-05-06T15:07:10.733Z,100801.95
2023-05-06T15:12:14.417Z,100807.41
2023-05-06T15:17:17.002Z,100812.34
2023-05-06T15:22:19.534Z,100812.65
2023-05-06T15:27:22.109Z,100817.55
2023-05-06T15:32:24.858Z,100812.73
2023-05-06T15:37:27.864Z,100813.02
2023-05-06T15:42:32.534Z,100813.42
2023-05-06T15:47:35.270Z,100810.34
2023-05-06T15:52:37.937Z,100807.20
2023-05-06T15:57:42.984Z,100809.36
2023-05-06T16:02:45.609Z,100813.22
2023-05-06T16:07:48.491Z,100810.98
2023-05-06T16:12:51.622Z,100813.55
2023-05-06T16:17:54.329Z,100811.77
2023-05-06T16:22:56.937Z,100817.08
2023-05-06T16:27:59.747Z,100817.98
2023-05-06T16:33:03.878Z,100819.56
2023-05-06T16:38:06.682Z,100819.06
2023-05-06T16:43:09.786Z,100814.58
2023-05-06T16:48:16.933Z,100820.29
2023-05-06T16:53:19.715Z,100817.09
2023-05-06T16:58:22.376Z,100817.28
2023-05-06T17:03:25.129Z,100816.96
2023-05-06T17:08:27.878Z,100814.77
2023-05-06T17:13:31.524Z,100814.33
2023-05-06T17:18:34.276Z,100818.70
2023-05-06T17:23:36.822Z,100821.10
2023-05-06T17:28:39.354Z,100821.88
2023-05-06T17:33:41.880Z,100816.88
2023-05-06T17:38:44.468Z,100818.39
2023-05-06T17:43:47.463Z,100818.86
2023-05-06T17:48:50.141Z,100818.86
2023-05-06T17:53:53.237Z,100823.17
2023-05-06T17:58:56.468Z,100824.33
2023-05-06T18:04:00.168Z,100825.35
2023-05-06T18:09:03.062Z,100826.54
2023-05-06T18:14:06.309Z,100833.15
2023-05-06T18:19:08.855Z,100835.09
2023-05-06T18:24:16.527Z,100836.34
2023-05-06T18:29:19.729Z,100836.79
2023-05-06T18:34:22.351Z,100841.09
2023-05-06T18:39:25.281Z,100841.38
2023-05-06T18:44:27.908Z,100845.91
2023-05-06T18:49:31.102Z,100850.70
2023-05-06T18:54:34.241Z,100850.66
2023-05-06T18:59:36.733Z,100851.96
2023-05-06T19:04:39.430Z,100857.70
2023-05-06T19:09:42.942Z,100860.09
2023-05-06T19:14:45.468Z,100864.77
2023-05-06T19:19:49.030Z,100869.86
2023-05-06T19:24:51.993Z,100868.47
2023-05-06T19:29:55.128Z,100868.84
2023-05-06T19:34:59.487Z,100866.85
2023-05-06T19:40:04.231Z,100867.13
2023-05-06T19:45:11.979Z,100867.21
2023-05-06T19:50:15.106Z,100869.64
2023-05-06T19:55:18.408Z,100871.27
2023-05-06T20:00:22.014Z,100870.30
2023-05-06T20:05:29.470Z,100874.22
2023-05-06T20:10:33.539Z,100875.70
2023-05-06T20:15:37.689Z,100879.14
2023-05-06T20:20:40.922Z,100879.86
2023-05-06T20:25:43.547Z,100881.63
2023-05-06T20:30:47.913Z,100881.38
2023-05-06T20:35:50.851Z,100881.29
2023-05-06T20:40:53.444Z,100880.80
2023-05-06T20:45:56.237Z,100878.38
2023-05-06T20:50:58.895Z,100878.09
2023-05-06T20:56:02.154Z,100883.75
2023-05-06T21:01:05.099Z,100880.58
2023-05-06T21:06:07.977Z,100880.20
2023-05-06T21:11:10.764Z,100883.59
2023-05-06T21:16:13.469Z,100890.64
2023-05-06T21:21:16.007Z,100894.27
2023-05-06T21:26:18.553Z,100893.98
2023-05-06T21:31:23.368Z,100890.75
2023-05-06T21:36:27.030Z,100890.42
2023-05-06T21:41:29.662Z,100890.59
2023-05-06T21:46:33.614Z,100891.02
2023-05-06T21:51:36.224Z,100891.61
2023-05-06T21:56:38.891Z,100895.44
2023-05-06T22:01:41.640Z,100897.70
2023-05-06T22:06:44.186Z,100899.21
2023-05-06T22:11:47.074Z,100903.59
2023-05-06T22:16:50.151Z,100902.03
2023-05-06T22:21:53.744Z,100899.35
2023-05-06T22:26:56.447Z,100899.30
2023-05-06T22:31:59.375Z,100903.40
2023-05-06T22:37:09.506Z,100901.24
2023-05-06T22:42:12.045Z,100903.12
2023-05-06T22:47:16.342Z,100904.84
2023-05-06T22:52:20.118Z,100905.70
2023-05-06T22:57:25.745Z,100906.95
2023-05-06T23:02:28.564Z,100911.08
2023-05-06T23:07:31.257Z,100920.88
2023-05-06T23:12:34.547Z,100925.09
2023-05-06T23:17:37.749Z,100923.85
2023-05-06T23:22:40.443Z,100925.02
2023-05-06T23:27:43.378Z,100923.46
2023-05-06T23:32:46.208Z,100922.02
2023-05-06T23:37:48.783Z,100928.61
2023-05-06T23:42:51.365Z,100932.36
2023-05-06T23:47:54.384Z,100935.32
2023-05-06T23:52:57.148Z,100933.11
2023-05-06T23:58:00.390Z,100932.15
